createdAt,value
2023-04-30T00:02:20.593Z,62.00
2023-04-30T00:04:47.162Z,61.90
2023-04-30T00:07:13.654Z,62.00
2023-04-30T00:09:40.113Z,61.80
2023-04-30T00:12:06.600Z,61.80
2023-04-30T00:14:33.266Z,61.80
2023-04-30T00:16:59.754Z,61.60
2023-04-30T00:19:26.225Z,61.80
2023-04-30T00:21:52.730Z,61.60
2023-04-30T00:24:19.228Z,61.60
2023-04-30T00:26:45.726Z,61.40
2023-04-30T00:29:12.214Z,61.50
2023-04-30T00:31:38.756Z,61.40
2023-04-30T00:34:05.290Z,61.20
2023-04-30T00:36:31.787Z,61.50
2023-04-30T00:38:58.254Z,61.40
2023-04-30T00:41:24.781Z,61.20
2023-04-30T00:43:51.265Z,61.30
2023-04-30T00:46:17.780Z,61.30
2023-04-30T00:48:44.252Z,61.40
2023-04-30T00:51:10.717Z,61.20
2023-04-30T00:53:37.293Z,61.10
2023-04-30T00:56:03.775Z,61.00
2023-04-30T00:58:30.255Z,61.10
2023-04-30T01:00:56.738Z,61.10
2023-04-30T01:03:23.311Z,61.00
2023-04-30T01:05:49.811Z,61.10
2023-04-30T01:08:16.300Z,61.30
2023-04-30T01:10:42.787Z,61.00
2023-04-30T01:13:09.283Z,60.90
2023-04-30T01:15:35.803Z,60.90
2023-04-30T01:18:02.451Z,60.90
2023-04-30T01:20:29.006Z,60.90
2023-04-30T01:22:55.475Z,61.00
2023-04-30T01:25:21.930Z,61.10
2023-04-30T01:27:48.439Z,61.00
2023-04-30T01:30:14.977Z,61.00
2023-04-30T01:32:41.531Z,60.60
2023-04-30T01:35:08.045Z,60.70
2023-04-30T01:37:34.583Z,60.80
2023-04-30T01:40:01.056Z,60.60
2023-04-30T01:42:27.542Z,60.50
2023-04-30T01:44:54.019Z,60.50
2023-04-30T01:47:20.578Z,60.70
2023-04-30T01:49:47.086Z,60.60
2023-04-30T01:52:13.546Z,60.50
2023-04-30T01:54:40.027Z,60.50
2023-04-30T01:57:06.530Z,60.50
2023-04-30T01:59:33.017Z,60.30
2023-04-30T02:01:59.603Z,60.30
2023-04-30T02:04:26.106Z,61.20
2023-04-30T02:06:52.583Z,60.30
2023-04-30T02:09:19.065Z,60.20
2023-04-30T02:11:45.538Z,60.20
2023-04-30T02:14:12.009Z,60.20
2023-04-30T02:16:38.605Z,60.50
2023-04-30T02:19:05.150Z,60.10
2023-04-30T02:21:31.622Z,60.00
2023-04-30T02:23:58.105Z,60.00
2023-04-30T02:26:24.594Z,59.90
2023-04-30T02:28:51.071Z,59.90
2023-04-30T02:31:17.590Z,59.80
2023-04-30T02:33:44.093Z,59.90
2023-04-30T02:36:10.557Z,59.90
2023-04-30T02:38:37.083Z,59.90
2023-04-30T02:41:03.577Z,59.90
2023-04-30T02:43:30.105Z,59.90
2023-04-30T02:45:56.593Z,59.80
2023-04-30T02:48:23.473Z,59.70
2023-04-30T02:50:49.947Z,59.70
2023-04-30T02:53:16.533Z,59.70
2023-04-30T02:55:43.001Z,59.70
2023-04-30T02:58:09.521Z,59.70
2023-04-30T03:00:36.013Z,59.60
2023-04-30T03:03:02.582Z,59.70
2023-04-30T03:05:29.159Z,59.60
2023-04-30T03:07:55.664Z,59.60
2023-04-30T03:10:22.124Z,59.50
2023-04-30T03:12:48.586Z,59.60
2023-04-30T03:15:15.078Z,59.70
2023-04-30T03:17:43.746Z,59.60
2023-04-30T03:20:11.854Z,59.50
2023-04-30T03:22:38.321Z,59.50
2023-04-30T03:25:04.790Z,59.30
2023-04-30T03:27:31.260Z,59.30
2023-04-30T03:29:57.714Z,59.30
2023-04-30T03:32:24.218Z,59.30
2023-04-30T03:34:50.706Z,59.30
2023-04-30T03:37:17.182Z,59.30
2023-04-30T03:39:43.643Z,59.20
2023-04-30T03:42:10.132Z,59.30
2023-04-30T03:44:36.644Z,59.30
2023-04-30T03:47:03.125Z,59.20
2023-04-30T03:49:29.604Z,59.40
2023-04-30T03:51:56.085Z,59.20
2023-04-30T03:54:22.570Z,59.20
2023-04-30T03:56:49.071Z,59.30
2023-04-30T03:59:15.577Z,59.30
2023-04-30T04:01:42.070Z,59.10
2023-04-30T04:04:08.610Z,59.10
2023-04-30T04:06:35.151Z,59.30
2023-04-30T04:09:01.730Z,59.10
2023-04-30T04:11:28.179Z,59.20
2023-04-30T04:13:54.641Z,59.70
2023-04-30T04:16:21.160Z,59.80
2023-04-30T04:18:47.665Z,59.60
2023-04-30T04:21:14.133Z,59.60
2023-04-30T04:23:40.599Z,59.40
2023-04-30T04:26:07.075Z,59.10
2023-04-30T04:28:33.570Z,59.10
2023-04-30T04:31:00.066Z,59.10
2023-04-30T04:33:26.605Z,59.30
2023-04-30T04:35:53.085Z,59.10
2023-04-30T04:38:19.558Z,59.00
2023-04-30T04:40:46.034Z,58.60
2023-04-30T04:43:12.520Z,58.50
2023-04-30T04:45:38.991Z,58.10
2023-04-30T04:48:05.569Z,58.30
2023-04-30T04:50:32.084Z,58.30
2023-04-30T04:52:58.558Z,57.90
2023-04-30T04:55:25.038Z,57.50
2023-04-30T04:57:51.528Z,57.10
2023-04-30T05:00:17.998Z,57.10
2023-04-30T05:02:44.564Z,57.50
2023-04-30T05:05:11.125Z,57.30
2023-04-30T05:07:37.586Z,57.20
2023-04-30T05:10:04.067Z,57.40
2023-04-30T05:12:30.534Z,57.50
2023-04-30T05:14:57.021Z,57.50
2023-04-30T05:17:23.546Z,57.60
2023-04-30T05:19:50.096Z,57.80
2023-04-30T05:22:16.573Z,57.50
2023-04-30T05:24:43.087Z,57.50
2023-04-30T05:27:09.567Z,57.40
2023-04-30T05:29:36.068Z,57.50
2023-04-30T05:32:02.623Z,57.70
2023-04-30T05:34:29.146Z,57.70
2023-04-30T05:36:55.610Z,57.60
2023-04-30T05:39:22.111Z,58.00
2023-04-30T05:41:49.090Z,58.00
2023-04-30T05:44:15.661Z,57.70
2023-04-30T05:46:42.137Z,57.60
2023-04-30T05:49:08.643Z,57.80
2023-04-30T05:51:35.097Z,57.30
2023-04-30T05:54:01.564Z,57.20
2023-04-30T05:56:28.036Z,57.30
2023-04-30T05:58:54.543Z,57.60
2023-04-30T06:01:21.032Z,57.30
2023-04-30T06:03:47.576Z,57.20
2023-04-30T06:06:14.067Z,57.50
2023-04-30T06:08:40.565Z,57.30
2023-04-30T06:11:07.031Z,57.20
2023-04-30T06:13:33.498Z,57.30
2023-04-30T06:16:00.006Z,57.30
2023-04-30T06:18:26.543Z,57.50
2023-04-30T06:20:53.010Z,57.30
2023-04-30T06:23:19.483Z,57.40
2023-04-30T06:25:45.961Z,57.50
2023-04-30T06:28:12.420Z,57.60
2023-04-30T06:30:38.894Z,57.40
2023-04-30T06:33:05.432Z,57.50
2023-04-30T06:35:31.940Z,57.20
2023-04-30T06:37:58.425Z,57.30
2023-04-30T06:40:24.914Z,57.50
2023-04-30T06:42:51.386Z,57.60
2023-04-30T06:45:17.876Z,57.50
2023-04-30T06:47:44.369Z,57.40
2023-04-30T06:50:10.852Z,57.40
2023-04-30T06:52:37.329Z,57.30
2023-04-30T06:55:03.793Z,57.50
2023-04-30T06:57:30.267Z,57.80
2023-04-30T06:59:56.921Z,57.40
2023-04-30T07:02:23.645Z,57.70
2023-04-30T07:04:50.146Z,58.00
2023-04-30T07:07:16.620Z,57.60
2023-04-30T07:09:43.058Z,57.40
2023-04-30T07:12:09.529Z,57.30
2023-04-30T07:14:35.989Z,57.40
2023-04-30T07:17:02.446Z,57.30
2023-04-30T07:19:28.932Z,57.50
2023-04-30T07:21:55.411Z,57.40
2023-04-30T07:24:21.896Z,57.20
2023-04-30T07:26:48.385Z,57.20
2023-04-30T07:29:14.858Z,57.10
2023-04-30T07:31:41.369Z,57.40
2023-04-30T07:34:07.891Z,57.50
2023-04-30T07:36:34.351Z,57.60
2023-04-30T07:39:00.812Z,57.50
2023-04-30T07:41:27.288Z,57.50
2023-04-30T07:43:53.761Z,57.20
2023-04-30T07:46:20.267Z,57.30
2023-04-30T07:48:46.753Z,57.70
2023-04-30T07:51:13.252Z,57.80
2023-04-30T07:53:39.741Z,57.50
2023-04-30T07:56:06.235Z,57.80
2023-04-30T07:58:32.709Z,57.80
2023-04-30T08:00:59.211Z,57.80
2023-04-30T08:03:25.733Z,57.80
2023-04-30T08:05:52.303Z,57.90
2023-04-30T08:08:18.771Z,57.90
2023-04-30T08:10:45.267Z,57.70
2023-04-30T08:13:11.746Z,57.90
2023-04-30T08:15:38.253Z,57.90
2023-04-30T08:18:04.736Z,57.80
2023-04-30T08:20:31.250Z,57.80
2023-04-30T08:22:57.721Z,57.90
2023-04-30T08:25:24.178Z,58.10
2023-04-30T08:27:50.651Z,58.30
2023-04-30T08:30:17.137Z,58.40
2023-04-30T08:32:43.632Z,58.40
2023-04-30T08:35:10.122Z,58.70
2023-04-30T08:37:36.596Z,58.80
2023-04-30T08:40:03.062Z,59.10
2023-04-30T08:42:29.557Z,59.30
2023-04-30T08:44:56.042Z,59.40
2023-04-30T08:47:22.554Z,59.50
2023-04-30T08:49:49.065Z,59.70
2023-04-30T08:52:15.549Z,59.80
2023-04-30T08:54:42.023Z,59.90
2023-04-30T08:57:08.475Z,60.00
2023-04-30T08:59:34.927Z,60.10
2023-04-30T09:02:01.505Z,60.10
2023-04-30T09:04:28.056Z,60.10
2023-04-30T09:06:54.551Z,60.10
2023-04-30T09:09:21.027Z,60.20
2023-04-30T09:11:47.497Z,60.30
2023-04-30T09:14:13.978Z,60.30
2023-04-30T09:16:40.465Z,61.10
2023-04-30T09:19:06.947Z,60.30
2023-04-30T09:21:33.439Z,60.30
2023-04-30T09:23:59.910Z,60.40
2023-04-30T09:26:26.382Z,60.40
2023-04-30T09:28:52.852Z,60.50
2023-04-30T09:31:19.305Z,60.50
2023-04-30T09:33:45.798Z,60.50
2023-04-30T09:36:12.270Z,60.60
2023-04-30T09:38:38.739Z,60.80
2023-04-30T09:41:05.211Z,60.70
2023-04-30T09:43:31.664Z,60.70
2023-04-30T09:45:58.144Z,60.70
2023-04-30T09:48:24.668Z,60.70
2023-04-30T09:50:51.200Z,60.80
2023-04-30T09:53:17.653Z,60.90
2023-04-30T09:55:44.135Z,60.90
2023-04-30T09:58:10.617Z,60.80
2023-04-30T10:00:37.136Z,60.80
2023-04-30T10:03:03.662Z,60.90
2023-04-30T10:05:30.155Z,60.70
2023-04-30T10:07:56.629Z,60.80
2023-04-30T10:10:23.111Z,60.80
2023-04-30T10:12:49.582Z,60.90
2023-04-30T10:15:16.078Z,60.80
2023-04-30T10:17:42.601Z,60.80
2023-04-30T10:20:09.139Z,60.70
2023-04-30T10:22:35.620Z,60.80
2023-04-30T10:25:02.089Z,60.80
2023-04-30T10:27:28.564Z,60.90
2023-04-30T10:29:55.375Z,60.80
2023-04-30T10:32:22.036Z,60.80
2023-04-30T10:34:48.684Z,60.80
2023-04-30T10:37:15.198Z,60.90
2023-04-30T10:39:41.671Z,60.70
2023-04-30T10:42:08.142Z,60.90
2023-04-30T10:44:34.611Z,60.90
2023-04-30T10:47:01.103Z,60.80
2023-04-30T10:49:27.586Z,60.80
2023-04-30T10:51:54.062Z,60.90
2023-04-30T10:54:20.561Z,60.90
2023-04-30T10:56:47.024Z,61.00
2023-04-30T10:59:13.500Z,60.80
2023-04-30T11:01:40.014Z,60.80
2023-04-30T11:04:06.581Z,60.90
2023-04-30T11:06:33.118Z,60.80
2023-04-30T11:08:59.605Z,60.70
2023-04-30T11:11:26.080Z,60.70
2023-04-30T11:13:52.556Z,60.80
2023-04-30T11:16:19.075Z,60.80
2023-04-30T11:18:45.596Z,60.80
2023-04-30T11:21:12.074Z,60.80
2023-04-30T11:23:41.737Z,60.90
2023-04-30T11:26:08.632Z,60.80
2023-04-30T11:28:35.114Z,60.90
2023-04-30T11:31:01.620Z,60.90
2023-04-30T11:33:28.174Z,60.90
2023-04-30T11:35:54.661Z,60.90
2023-04-30T11:38:21.136Z,61.00
2023-04-30T11:40:47.630Z,61.00
2023-04-30T11:43:14.112Z,60.90
2023-04-30T11:45:40.614Z,61.20
2023-04-30T11:48:07.130Z,61.20
2023-04-30T11:50:33.677Z,61.10
2023-04-30T11:53:00.150Z,61.00
2023-04-30T11:55:26.667Z,61.20
2023-04-30T11:57:53.185Z,61.00
2023-04-30T12:00:19.738Z,61.20
2023-04-30T12:02:46.345Z,61.20
2023-04-30T12:05:12.916Z,61.40
2023-04-30T12:07:39.390Z,61.30
2023-04-30T12:10:05.865Z,61.30
2023-04-30T12:12:32.349Z,61.30
2023-04-30T12:14:58.821Z,61.40
2023-04-30T12:17:25.326Z,61.50
2023-04-30T12:19:51.849Z,61.40
2023-04-30T12:22:18.353Z,61.40
2023-04-30T12:24:44.808Z,61.30
2023-04-30T12:27:11.293Z,61.50
2023-04-30T12:29:37.768Z,61.50
2023-04-30T12:32:04.289Z,61.50
2023-04-30T12:34:33.498Z,61.50
2023-04-30T12:37:00.204Z,61.50
2023-04-30T12:39:26.674Z,61.60
2023-04-30T12:41:53.149Z,61.50
2023-04-30T12:44:19.636Z,61.50
2023-04-30T12:46:46.424Z,61.60
2023-04-30T12:49:13.190Z,61.70
2023-04-30T12:51:39.669Z,61.80
2023-04-30T12:54:06.152Z,61.70
2023-04-30T12:56:32.631Z,61.70
2023-04-30T12:58:59.157Z,61.70
2023-04-30T13:01:25.770Z,62.60
2023-04-30T13:03:52.817Z,61.80
2023-04-30T13:06:19.737Z,61.90
2023-04-30T13:08:57.998Z,62.00
2023-04-30T13:11:25.506Z,61.90
2023-04-30T13:13:53.995Z,61.80
2023-04-30T13:16:20.557Z,61.90
2023-04-30T13:18:47.124Z,62.00
2023-04-30T13:21:13.606Z,62.80
2023-04-30T13:23:51.123Z,61.90
2023-04-30T13:26:18.956Z,62.00
2023-04-30T13:28:45.472Z,62.00
2023-04-30T13:31:12.004Z,62.10
2023-04-30T13:33:38.509Z,62.10
2023-04-30T13:36:04.982Z,62.00
2023-04-30T13:38:31.452Z,62.10
2023-04-30T13:40:57.932Z,62.10
2023-04-30T13:43:24.445Z,62.00
2023-04-30T13:45:50.925Z,62.10
2023-04-30T13:48:17.390Z,62.10
2023-04-30T13:50:43.888Z,62.10
2023-04-30T13:53:10.378Z,62.20
2023-04-30T13:55:36.862Z,62.10
2023-04-30T13:58:03.362Z,62.10
2023-04-30T14:00:29.879Z,62.00
2023-04-30T14:02:56.707Z,61.90
2023-04-30T14:05:23.447Z,62.00
2023-04-30T14:07:50.105Z,61.20
2023-04-30T14:10:16.631Z,61.40
2023-04-30T14:12:43.109Z,61.10
2023-04-30T14:15:09.609Z,61.00
2023-04-30T14:17:36.132Z,61.20
2023-04-30T14:20:02.669Z,60.80
2023-04-30T14:22:29.129Z,60.10
2023-04-30T14:24:55.581Z,59.90
2023-04-30T14:27:22.069Z,59.60
2023-04-30T14:29:48.582Z,59.90
2023-04-30T14:32:15.161Z,60.20
2023-04-30T14:34:41.682Z,60.10
2023-04-30T14:37:08.160Z,60.10
2023-04-30T14:39:34.646Z,59.60
2023-04-30T14:42:01.141Z,59.90
2023-04-30T14:44:27.626Z,59.10
2023-04-30T14:46:54.093Z,58.60
2023-04-30T14:49:20.583Z,58.30
2023-04-30T14:51:47.063Z,59.00
2023-04-30T14:54:13.548Z,59.30
2023-04-30T14:56:40.042Z,59.60
2023-04-30T14:59:06.521Z,59.80
2023-04-30T15:01:33.070Z,59.90
2023-04-30T15:03:59.597Z,59.30
2023-04-30T15:06:26.138Z,59.30
2023-04-30T15:08:52.634Z,59.50
2023-04-30T15:11:19.161Z,58.50
2023-04-30T15:13:45.644Z,59.20
2023-04-30T15:16:12.152Z,59.00
2023-04-30T15:18:38.621Z,58.60
2023-04-30T15:21:05.110Z,58.80
2023-04-30T15:23:31.605Z,59.10
2023-04-30T15:25:58.118Z,58.70
2023-04-30T15:28:24.601Z,59.00
2023-04-30T15:30:51.124Z,59.00
2023-04-30T15:33:17.659Z,59.00
2023-04-30T15:35:44.227Z,59.10
2023-04-30T15:38:10.695Z,59.20
2023-04-30T15:40:37.191Z,59.40
2023-04-30T15:43:03.703Z,59.60
2023-04-30T15:45:30.190Z,60.50
2023-04-30T15:47:56.739Z,59.70
2023-04-30T15:50:23.267Z,59.80
2023-04-30T15:52:49.747Z,59.80
2023-04-30T15:55:16.248Z,59.90
2023-04-30T15:57:42.786Z,59.90
2023-04-30T16:00:09.278Z,60.00
2023-04-30T16:02:35.909Z,60.10
2023-04-30T16:05:02.548Z,60.10
2023-04-30T16:07:30.134Z,60.00
2023-04-30T16:09:56.962Z,60.00
2023-04-30T16:12:23.636Z,60.00
2023-04-30T16:14:50.125Z,60.00
2023-04-30T16:17:16.608Z,60.10
2023-04-30T16:19:43.080Z,60.00
2023-04-30T16:22:09.552Z,60.00
2023-04-30T16:24:36.004Z,60.00
2023-04-30T16:27:02.484Z,60.00
2023-04-30T16:29:28.973Z,59.90
2023-04-30T16:31:55.501Z,60.00
2023-04-30T16:34:22.021Z,60.00
2023-04-30T16:36:48.500Z,59.90
2023-04-30T16:39:16.969Z,60.10
2023-04-30T16:41:43.652Z,60.00
2023-04-30T16:44:10.143Z,59.80
2023-04-30T16:46:36.791Z,59.90
2023-04-30T16:49:03.352Z,59.90
2023-04-30T16:51:29.841Z,59.80
2023-04-30T16:53:56.338Z,59.90
2023-04-30T16:56:22.820Z,59.90
2023-04-30T16:58:49.309Z,60.00
2023-04-30T17:01:15.842Z,60.00
2023-04-30T17:03:42.373Z,60.00
2023-04-30T17:06:08.956Z,60.00
2023-04-30T17:08:35.447Z,59.90
2023-04-30T17:11:01.938Z,59.90
2023-04-30T17:13:28.415Z,59.90
2023-04-30T17:15:54.965Z,59.90
2023-04-30T17:18:21.591Z,59.90
2023-04-30T17:20:48.094Z,59.80
2023-04-30T17:23:14.605Z,59.80
2023-04-30T17:25:41.082Z,59.70
2023-04-30T17:28:07.563Z,59.70
2023-04-30T17:30:34.022Z,59.80
2023-04-30T17:33:00.567Z,59.80
2023-04-30T17:35:27.093Z,59.70
2023-04-30T17:37:53.590Z,59.70
2023-04-30T17:40:20.053Z,59.70
2023-04-30T17:42:46.526Z,59.60
2023-04-30T17:45:13.007Z,59.60
2023-04-30T17:47:39.528Z,59.60
2023-04-30T17:50:06.027Z,59.60
2023-04-30T17:52:32.510Z,59.60
2023-04-30T17:54:58.983Z,59.60
2023-04-30T17:57:25.458Z,59.50
2023-04-30T17:59:51.932Z,59.60
2023-04-30T18:02:18.470Z,59.60
2023-04-30T18:04:45.003Z,59.60
2023-04-30T18:07:11.505Z,59.60
2023-04-30T18:09:37.981Z,59.60
2023-04-30T18:12:04.488Z,59.60
2023-04-30T18:14:30.954Z,59.60
2023-04-30T18:16:57.457Z,59.50
2023-04-30T18:19:23.903Z,59.60
2023-04-30T18:21:50.394Z,59.50
2023-04-30T18:24:16.874Z,59.60
2023-04-30T18:26:43.358Z,59.60
2023-04-30T18:29:09.815Z,59.50
2023-04-30T18:31:36.297Z,59.40
2023-04-30T18:34:02.793Z,59.60
2023-04-30T18:36:29.296Z,59.40
2023-04-30T18:38:55.786Z,59.40
2023-04-30T18:41:22.253Z,59.40
2023-04-30T18:43:48.728Z,59.50
2023-04-30T18:46:15.266Z,59.40
2023-04-30T18:48:41.786Z,59.30
2023-04-30T18:51:08.262Z,59.30
2023-04-30T18:53:34.723Z,59.30
2023-04-30T18:56:01.193Z,59.20
2023-04-30T18:58:27.664Z,59.10
2023-04-30T19:00:54.177Z,59.10
2023-04-30T19:03:20.707Z,59.10
2023-04-30T19:05:47.227Z,59.20
2023-04-30T19:08:13.712Z,59.10
2023-04-30T19:10:40.179Z,59.20
2023-04-30T19:13:06.674Z,59.10
2023-04-30T19:15:33.140Z,59.10
2023-04-30T19:17:59.664Z,59.10
2023-04-30T19:20:26.161Z,59.00
2023-04-30T19:22:52.634Z,59.10
2023-04-30T19:25:19.104Z,59.00
2023-04-30T19:27:45.596Z,59.10
2023-04-30T19:30:12.061Z,59.80
2023-04-30T19:32:38.571Z,59.10
2023-04-30T19:35:05.104Z,59.10
2023-04-30T19:37:31.558Z,59.10
2023-04-30T19:39:58.308Z,59.10
2023-04-30T19:42:24.812Z,59.10
2023-04-30T19:44:51.281Z,59.10
2023-04-30T19:47:17.767Z,59.10
2023-04-30T19:49:44.255Z,59.00
2023-04-30T19:52:10.740Z,59.10
2023-04-30T19:54:37.217Z,59.10
2023-04-30T19:57:03.711Z,59.00
2023-04-30T19:59:30.200Z,59.10
2023-04-30T20:01:56.724Z,59.00
2023-04-30T20:04:23.204Z,59.10
2023-04-30T20:06:49.753Z,59.00
2023-04-30T20:09:16.285Z,59.00
2023-04-30T20:11:42.746Z,59.00
2023-04-30T20:14:09.218Z,58.90
2023-04-30T20:16:35.964Z,58.90
2023-04-30T20:19:02.575Z,59.00
2023-04-30T20:21:29.076Z,59.00
2023-04-30T20:23:55.559Z,58.90
2023-04-30T20:26:22.026Z,59.00
2023-04-30T20:28:48.506Z,59.00
2023-04-30T20:31:15.038Z,58.90
2023-04-30T20:33:41.584Z,59.00
2023-04-30T20:36:08.054Z,59.00
2023-04-30T20:38:34.518Z,59.00
2023-04-30T20:41:06.594Z,59.10
2023-04-30T20:43:33.099Z,59.00
2023-04-30T20:45:59.582Z,59.20
2023-04-30T20:48:26.096Z,59.00
2023-04-30T20:50:52.572Z,59.00
2023-04-30T20:53:19.037Z,59.00
2023-04-30T20:55:45.525Z,59.00
2023-04-30T20:58:11.999Z,59.00
2023-04-30T21:00:38.481Z,59.00
2023-04-30T21:03:05.191Z,58.90
2023-04-30T21:05:31.729Z,59.10
2023-04-30T21:07:58.197Z,59.00
2023-04-30T21:10:24.660Z,59.00
2023-04-30T21:12:51.116Z,58.90
2023-04-30T21:15:17.605Z,59.00
2023-04-30T21:17:44.115Z,59.00
2023-04-30T21:20:10.597Z,59.00
2023-04-30T21:22:37.073Z,59.00
2023-04-30T21:25:03.554Z,59.00
2023-04-30T21:27:30.046Z,59.00
2023-04-30T21:29:56.771Z,59.00
2023-04-30T21:32:23.557Z,59.00
2023-04-30T21:34:50.059Z,59.10
2023-04-30T21:37:17.127Z,59.70
2023-04-30T21:39:44.020Z,59.00
2023-04-30T21:42:10.502Z,59.00
2023-04-30T21:44:36.989Z,59.00
2023-04-30T21:47:03.459Z,58.90
2023-04-30T21:49:29.954Z,58.80
2023-04-30T21:51:56.430Z,58.80
2023-04-30T21:54:22.947Z,58.70
2023-04-30T21:56:49.408Z,58.70
2023-04-30T21:59:15.887Z,58.80
2023-04-30T22:01:42.410Z,58.80
2023-04-30T22:04:08.995Z,58.80
2023-04-30T22:06:35.592Z,58.80
2023-04-30T22:09:02.095Z,58.80
2023-04-30T22:11:28.582Z,58.80
2023-04-30T22:13:55.048Z,58.70
2023-04-30T22:16:21.570Z,58.60
2023-04-30T22:18:48.174Z,58.70
2023-04-30T22:21:14.708Z,58.60
2023-04-30T22:23:41.190Z,58.50
2023-04-30T22:26:07.663Z,58.60
2023-04-30T22:28:34.145Z,58.60
2023-04-30T22:31:00.641Z,58.60
2023-04-30T22:33:27.134Z,58.60
2023-04-30T22:35:53.597Z,58.50
2023-04-30T22:38:20.070Z,58.50
2023-04-30T22:40:46.537Z,58.50
2023-04-30T22:43:13.000Z,58.50
2023-04-30T22:45:39.456Z,58.40
2023-04-30T22:48:05.978Z,58.50
2023-04-30T22:50:32.511Z,58.40
2023-04-30T22:52:58.991Z,58.30
2023-04-30T22:55:25.493Z,58.30
2023-04-30T22:57:51.957Z,58.40
2023-04-30T23:00:18.430Z,58.40
2023-04-30T23:02:44.966Z,58.30
2023-04-30T23:05:11.465Z,58.40
2023-04-30T23:07:37.968Z,58.40
2023-04-30T23:10:04.435Z,58.30
2023-04-30T23:12:30.909Z,58.30
2023-04-30T23:14:57.397Z,58.30
2023-04-30T23:17:23.904Z,58.40
2023-04-30T23:19:50.393Z,58.20
2023-04-30T23:22:16.874Z,58.20
2023-04-30T23:24:43.362Z,58.30
2023-04-30T23:27:12.515Z,58.30
2023-04-30T23:29:39.071Z,58.30
2023-04-30T23:32:05.595Z,58.30
2023-04-30T23:34:32.086Z,58.20
2023-04-30T23:36:58.557Z,58.20
2023-04-30T23:39:25.040Z,58.10
2023-04-30T23:41:51.544Z,58.10
2023-04-30T23:44:18.003Z,58.00
2023-04-30T23:46:44.523Z,58.10
2023-04-30T23:49:11.042Z,58.00
2023-04-30T23:51:37.529Z,57.90
2023-04-30T23:54:03.990Z,58.20
2023-04-30T23:56:30.487Z,58.00
2023-04-30T23:58:56.950Z,58.00
